sensor_id;sensor_type;location;lat;lon;timestamp;temperature;humidity
33837;DHT22;20140;49.356;8.812;2023-06-04T00:01:41;14.60;99.90
33837;DHT22;20140;49.356;8.812;2023-06-04T00:04:07;14.50;99.90
33837;DHT22;20140;49.356;8.812;2023-06-04T00:06:32;14.50;99.90
33837;DHT22;20140;49.356;8.812;2023-06-04T00:08:57;14.40;99.90
33837;DHT22;20140;49.356;8.812;2023-06-04T00:11:23;14.40;99.90
33837;DHT22;20140;49.356;8.812;2023-06-04T00:13:48;14.50;99.90
33837;DHT22;20140;49.356;8.812;2023-06-04T00:16:14;14.50;99.90
33837;DHT22;20140;49.356;8.812;2023-06-04T00:18:39;14.40;99.90
33837;DHT22;20140;49.356;8.812;2023-06-04T00:21:05;14.40;99.90
33837;DHT22;20140;49.356;8.812;2023-06-04T00:23:30;14.40;99.90
33837;DHT22;20140;49.356;8.812;2023-06-04T00:25:56;14.40;99.90
33837;DHT22;20140;49.356;8.812;2023-06-04T00:28:21;14.40;99.90
33837;DHT22;20140;49.356;8.812;2023-06-04T00:30:47;14.30;99.90
33837;DHT22;20140;49.356;8.812;2023-06-04T00:33:12;14.20;99.90
33837;DHT22;20140;49.356;8.812;2023-06-04T00:35:37;14.20;99.90
33837;DHT22;20140;49.356;8.812;2023-06-04T00:38:03;14.20;99.90
33837;DHT22;20140;49.356;8.812;2023-06-04T00:40:28;14.10;99.90
33837;DHT22;20140;49.356;8.812;2023-06-04T00:42:54;14.10;99.90
33837;DHT22;20140;49.356;8.812;2023-06-04T00:45:21;14.10;99.90
33837;DHT22;20140;49.356;8.812;2023-06-04T00:47:47;14.10;99.90
33837;DHT22;20140;49.356;8.812;2023-06-04T00:50:13;14.00;99.90
33837;DHT22;20140;49.356;8.812;2023-06-04T00:52:38;14.00;99.90
33837;DHT22;20140;49.356;8.812;2023-06-04T00:55:04;13.90;99.90
33837;DHT22;20140;49.356;8.812;2023-06-04T00:57:30;13.80;99.90
33837;DHT22;20140;49.356;8.812;2023-06-04T00:59:55;13.80;99.90
33837;DHT22;20140;49.356;8.812;2023-06-04T01:02:21;13.70;99.90
33837;DHT22;20140;49.356;8.812;2023-06-04T01:07:49;13.30;99.90
33837;DHT22;20140;49.356;8.812;2023-06-04T01:10:15;13.40;99.90
33837;DHT22;20140;49.356;8.812;2023-06-04T01:12:41;13.50;99.90
33837;DHT22;20140;49.356;8.812;2023-06-04T01:15:07;13.50;99.90
33837;DHT22;20140;49.356;8.812;2023-06-04T01:20:18;13.50;99.90
33837;DHT22;20140;49.356;8.812;2023-06-04T01:27:55;13.50;99.90
33837;DHT22;20140;49.356;8.812;2023-06-04T01:30:25;13.50;99.90
33837;DHT22;20140;49.356;8.812;2023-06-04T01:32:54;13.50;99.90
33837;DHT22;20140;49.356;8.812;2023-06-04T01:35:20;13.60;99.90
33837;DHT22;20140;49.356;8.812;2023-06-04T01:37:46;13.60;99.90
33837;DHT22;20140;49.356;8.812;2023-06-04T01:40:11;13.50;99.90
33837;DHT22;20140;49.356;8.812;2023-06-04T01:42:37;13.40;99.90
33837;DHT22;20140;49.356;8.812;2023-06-04T01:45:02;13.30;99.90
33837;DHT22;20140;49.356;8.812;2023-06-04T01:47:28;13.30;99.90
33837;DHT22;20140;49.356;8.812;2023-06-04T01:49:54;13.30;99.90
33837;DHT22;20140;49.356;8.812;2023-06-04T01:52:19;13.30;99.90
33837;DHT22;20140;49.356;8.812;2023-06-04T01:54:46;13.30;99.90
33837;DHT22;20140;49.356;8.812;2023-06-04T01:57:14;13.20;99.90
33837;DHT22;20140;49.356;8.812;2023-06-04T01:59:39;13.20;99.90
33837;DHT22;20140;49.356;8.812;2023-06-04T02:02:06;13.10;99.90
33837;DHT22;20140;49.356;8.812;2023-06-04T02:04:32;13.00;99.90
33837;DHT22;20140;49.356;8.812;2023-06-04T02:06:57;12.90;99.90
33837;DHT22;20140;49.356;8.812;2023-06-04T02:09:25;12.80;99.90
33837;DHT22;20140;49.356;8.812;2023-06-04T02:11:51;12.70;99.90
33837;DHT22;20140;49.356;8.812;2023-06-04T02:14:16;12.70;99.90
33837;DHT22;20140;49.356;8.812;2023-06-04T02:16:42;12.80;99.90
33837;DHT22;20140;49.356;8.812;2023-06-04T02:19:07;12.70;99.90
33837;DHT22;20140;49.356;8.812;2023-06-04T02:21:33;12.70;99.90
33837;DHT22;20140;49.356;8.812;2023-06-04T02:23:58;12.60;99.90
33837;DHT22;20140;49.356;8.812;2023-06-04T02:26:23;12.60;99.90
33837;DHT22;20140;49.356;8.812;2023-06-04T02:28:50;12.60;99.90
33837;DHT22;20140;49.356;8.812;2023-06-04T02:31:15;12.40;99.90
33837;DHT22;20140;49.356;8.812;2023-06-04T02:33:41;12.40;99.90
33837;DHT22;20140;49.356;8.812;2023-06-04T02:36:06;12.30;99.90
33837;DHT22;20140;49.356;8.812;2023-06-04T02:38:34;12.20;99.90
33837;DHT22;20140;49.356;8.812;2023-06-04T02:41:00;12.10;99.90
33837;DHT22;20140;49.356;8.812;2023-06-04T02:43:25;11.90;99.90
33837;DHT22;20140;49.356;8.812;2023-06-04T02:45:50;11.80;99.90
33837;DHT22;20140;49.356;8.812;2023-06-04T02:48:16;11.70;99.90
33837;DHT22;20140;49.356;8.812;2023-06-04T02:50:41;11.80;99.90
33837;DHT22;20140;49.356;8.812;2023-06-04T02:53:10;11.90;99.90
33837;DHT22;20140;49.356;8.812;2023-06-04T02:55:35;11.90;99.90
33837;DHT22;20140;49.356;8.812;2023-06-04T02:58:01;12.00;99.90
33837;DHT22;20140;49.356;8.812;2023-06-04T03:00:27;12.00;99.90
33837;DHT22;20140;49.356;8.812;2023-06-04T03:02:53;12.00;99.90
33837;DHT22;20140;49.356;8.812;2023-06-04T03:05:26;12.00;99.90
33837;DHT22;20140;49.356;8.812;2023-06-04T03:07:52;12.10;99.90
33837;DHT22;20140;49.356;8.812;2023-06-04T03:10:18;12.10;99.90
33837;DHT22;20140;49.356;8.812;2023-06-04T03:12:44;12.10;99.90
33837;DHT22;20140;49.356;8.812;2023-06-04T03:15:09;12.10;99.90
33837;DHT22;20140;49.356;8.812;2023-06-04T03:17:35;12.10;99.90
33837;DHT22;20140;49.356;8.812;2023-06-04T03:20:00;12.20;99.90
33837;DHT22;20140;49.356;8.812;2023-06-04T03:22:26;12.00;99.90
33837;DHT22;20140;49.356;8.812;2023-06-04T03:24:53;11.90;99.90
33837;DHT22;20140;49.356;8.812;2023-06-04T03:27:19;11.70;99.90
33837;DHT22;20140;49.356;8.812;2023-06-04T03:29:45;11.60;99.90
33837;DHT22;20140;49.356;8.812;2023-06-04T03:32:11;11.50;99.90
33837;DHT22;20140;49.356;8.812;2023-06-04T03:34:37;11.50;99.90
33837;DHT22;20140;49.356;8.812;2023-06-04T03:37:03;11.50;99.90
33837;DHT22;20140;49.356;8.812;2023-06-04T03:39:28;11.40;99.90
33837;DHT22;20140;49.356;8.812;2023-06-04T03:41:54;11.50;99.90
33837;DHT22;20140;49.356;8.812;2023-06-04T03:44:21;11.60;99.90
33837;DHT22;20140;49.356;8.812;2023-06-04T03:46:47;11.60;99.90
33837;DHT22;20140;49.356;8.812;2023-06-04T03:49:13;11.60;99.90
33837;DHT22;20140;49.356;8.812;2023-06-04T03:51:38;11.50;99.90
33837;DHT22;20140;49.356;8.812;2023-06-04T03:54:04;11.50;99.90
33837;DHT22;20140;49.356;8.812;2023-06-04T03:56:30;11.50;99.90
33837;DHT22;20140;49.356;8.812;2023-06-04T03:58:55;11.60;99.90
33837;DHT22;20140;49.356;8.812;2023-06-04T04:01:21;11.60;99.90
33837;DHT22;20140;49.356;8.812;2023-06-04T04:03:46;11.60;99.90
33837;DHT22;20140;49.356;8.812;2023-06-04T04:06:15;11.70;99.90
33837;DHT22;20140;49.356;8.812;2023-06-04T04:08:40;11.70;99.90
33837;DHT22;20140;49.356;8.812;2023-06-04T04:11:07;11.80;99.90
33837;DHT22;20140;49.356;8.812;2023-06-04T04:13:33;11.80;99.90
33837;DHT22;20140;49.356;8.812;2023-06-04T04:15:59;11.90;99.90
33837;DHT22;20140;49.356;8.812;2023-06-04T04:18:24;11.90;99.90
33837;DHT22;20140;49.356;8.812;2023-06-04T04:20:50;11.90;99.90
33837;DHT22;20140;49.356;8.812;2023-06-04T04:23:15;11.70;99.90
33837;DHT22;20140;49.356;8.812;2023-06-04T04:25:42;11.80;99.90
33837;DHT22;20140;49.356;8.812;2023-06-04T04:28:09;11.70;99.90
33837;DHT22;20140;49.356;8.812;2023-06-04T04:30:35;11.60;99.90
33837;DHT22;20140;49.356;8.812;2023-06-04T04:33:01;11.60;99.90
33837;DHT22;20140;49.356;8.812;2023-06-04T04:35:26;11.70;99.90
33837;DHT22;20140;49.356;8.812;2023-06-04T04:37:51;11.70;99.90
33837;DHT22;20140;49.356;8.812;2023-06-04T04:40:17;11.80;99.90
33837;DHT22;20140;49.356;8.812;2023-06-04T04:42:43;11.90;99.90
33837;DHT22;20140;49.356;8.812;2023-06-04T04:45:08;12.00;99.90
33837;DHT22;20140;49.356;8.812;2023-06-04T04:47:34;11.90;99.90
33837;DHT22;20140;49.356;8.812;2023-06-04T04:50:00;11.90;99.90
33837;DHT22;20140;49.356;8.812;2023-06-04T04:52:25;12.00;99.90
33837;DHT22;20140;49.356;8.812;2023-06-04T04:54:51;12.10;99.90
33837;DHT22;20140;49.356;8.812;2023-06-04T04:57:20;12.10;99.90
33837;DHT22;20140;49.356;8.812;2023-06-04T04:59:46;12.20;99.90
33837;DHT22;20140;49.356;8.812;2023-06-04T05:02:11;12.40;99.90
33837;DHT22;20140;49.356;8.812;2023-06-04T05:04:37;12.40;99.90
33837;DHT22;20140;49.356;8.812;2023-06-04T05:07:02;12.60;99.90
33837;DHT22;20140;49.356;8.812;2023-06-04T05:09:28;12.70;99.90
33837;DHT22;20140;49.356;8.812;2023-06-04T05:11:53;12.70;99.90
33837;DHT22;20140;49.356;8.812;2023-06-04T05:14:19;12.80;99.90
33837;DHT22;20140;49.356;8.812;2023-06-04T05:16:45;12.80;99.90
33837;DHT22;20140;49.356;8.812;2023-06-04T05:19:10;12.90;99.90
33837;DHT22;20140;49.356;8.812;2023-06-04T05:21:36;12.90;99.90
33837;DHT22;20140;49.356;8.812;2023-06-04T05:24:02;13.10;99.90
33837;DHT22;20140;49.356;8.812;2023-06-04T05:26:27;13.10;99.90
33837;DHT22;20140;49.356;8.812;2023-06-04T05:28:53;13.20;99.90
33837;DHT22;20140;49.356;8.812;2023-06-04T05:31:19;13.20;99.90
33837;DHT22;20140;49.356;8.812;2023-06-04T05:33:44;13.30;99.90
33837;DHT22;20140;49.356;8.812;2023-06-04T05:36:10;13.30;99.90
33837;DHT22;20140;49.356;8.812;2023-06-04T05:38:35;13.40;99.90
33837;DHT22;20140;49.356;8.812;2023-06-04T05:41:01;13.60;99.90
33837;DHT22;20140;49.356;8.812;2023-06-04T05:43:27;13.60;99.90
33837;DHT22;20140;49.356;8.812;2023-06-04T05:45:52;13.70;99.90
33837;DHT22;20140;49.356;8.812;2023-06-04T05:48:18;13.80;99.90
33837;DHT22;20140;49.356;8.812;2023-06-04T05:50:43;13.90;99.90
33837;DHT22;20140;49.356;8.812;2023-06-04T05:53:09;13.90;99.90
33837;DHT22;20140;49.356;8.812;2023-06-04T05:55:34;14.20;99.90
33837;DHT22;20140;49.356;8.812;2023-06-04T05:58:00;14.30;99.90
33837;DHT22;20140;49.356;8.812;2023-06-04T06:00:25;14.30;99.90
33837;DHT22;20140;49.356;8.812;2023-06-04T06:02:52;14.40;99.90
33837;DHT22;20140;49.356;8.812;2023-06-04T06:05:18;14.50;99.90
33837;DHT22;20140;49.356;8.812;2023-06-04T06:07:45;14.50;99.90
33837;DHT22;20140;49.356;8.812;2023-06-04T06:10:10;14.50;99.90
33837;DHT22;20140;49.356;8.812;2023-06-04T06:12:36;14.60;99.90
33837;DHT22;20140;49.356;8.812;2023-06-04T06:15:01;14.70;99.90
33837;DHT22;20140;49.356;8.812;2023-06-04T06:17:27;14.80;99.90
33837;DHT22;20140;49.356;8.812;2023-06-04T06:19:54;14.90;99.90
33837;DHT22;20140;49.356;8.812;2023-06-04T06:22:19;15.10;99.90
33837;DHT22;20140;49.356;8.812;2023-06-04T06:24:45;15.20;99.90
33837;DHT22;20140;49.356;8.812;2023-06-04T06:27:10;15.20;99.90
33837;DHT22;20140;49.356;8.812;2023-06-04T06:29:36;15.30;99.90
33837;DHT22;20140;49.356;8.812;2023-06-04T06:32:02;15.30;99.90
33837;DHT22;20140;49.356;8.812;2023-06-04T06:34:27;15.40;99.90
33837;DHT22;20140;49.356;8.812;2023-06-04T06:36:53;15.60;99.90
33837;DHT22;20140;49.356;8.812;2023-06-04T06:39:18;15.80;99.90
33837;DHT22;20140;49.356;8.812;2023-06-04T06:41:44;15.80;99.90
33837;DHT22;20140;49.356;8.812;2023-06-04T06:44:10;15.80;99.90
33837;DHT22;20140;49.356;8.812;2023-06-04T06:46:35;15.90;99.90
33837;DHT22;20140;49.356;8.812;2023-06-04T06:49:01;15.90;99.90
33837;DHT22;20140;49.356;8.812;2023-06-04T06:51:26;16.00;99.90
33837;DHT22;20140;49.356;8.812;2023-06-04T06:53:51;16.10;99.90
33837;DHT22;20140;49.356;8.812;2023-06-04T06:56:17;16.20;99.90
33837;DHT22;20140;49.356;8.812;2023-06-04T06:58:43;16.30;99.90
33837;DHT22;20140;49.356;8.812;2023-06-04T07:01:09;16.40;99.90
33837;DHT22;20140;49.356;8.812;2023-06-04T07:03:35;16.40;99.90
33837;DHT22;20140;49.356;8.812;2023-06-04T07:06:00;16.60;99.90
33837;DHT22;20140;49.356;8.812;2023-06-04T07:08:26;16.60;99.90
33837;DHT22;20140;49.356;8.812;2023-06-04T07:10:51;16.60;99.90
33837;DHT22;20140;49.356;8.812;2023-06-04T07:13:17;16.80;99.90
33837;DHT22;20140;49.356;8.812;2023-06-04T07:15:42;16.90;99.90
33837;DHT22;20140;49.356;8.812;2023-06-04T07:18:08;17.00;99.90
33837;DHT22;20140;49.356;8.812;2023-06-04T07:20:33;17.20;99.90
33837;DHT22;20140;49.356;8.812;2023-06-04T07:22:59;17.30;99.90
33837;DHT22;20140;49.356;8.812;2023-06-04T07:25:24;17.30;99.90
33837;DHT22;20140;49.356;8.812;2023-06-04T07:27:51;17.40;99.90
33837;DHT22;20140;49.356;8.812;2023-06-04T07:30:16;17.50;99.90
33837;DHT22;20140;49.356;8.812;2023-06-04T07:32:45;17.50;99.90
33837;DHT22;20140;49.356;8.812;2023-06-04T07:35:11;17.60;99.70
33837;DHT22;20140;49.356;8.812;2023-06-04T07:37:36;17.70;99.70
33837;DHT22;20140;49.356;8.812;2023-06-04T07:40:02;17.70;99.80
33837;DHT22;20140;49.356;8.812;2023-06-04T07:42:27;17.80;99.90
33837;DHT22;20140;49.356;8.812;2023-06-04T07:44:53;17.90;99.90
33837;DHT22;20140;49.356;8.812;2023-06-04T07:47:18;18.10;99.70
33837;DHT22;20140;49.356;8.812;2023-06-04T07:49:44;18.20;98.80
33837;DHT22;20140;49.356;8.812;2023-06-04T07:52:09;18.40;99.30
33837;DHT22;20140;49.356;8.812;2023-06-04T07:54:35;18.50;99.10
33837;DHT22;20140;49.356;8.812;2023-06-04T07:57:00;18.60;98.40
33837;DHT22;20140;49.356;8.812;2023-06-04T07:59:26;18.60;98.20
33837;DHT22;20140;49.356;8.812;2023-06-04T08:01:51;18.80;99.20
33837;DHT22;20140;49.356;8.812;2023-06-04T08:04:17;18.90;98.10
33837;DHT22;20140;49.356;8.812;2023-06-04T08:06:43;18.90;98.40
33837;DHT22;20140;49.356;8.812;2023-06-04T08:09:10;19.00;98.50
33837;DHT22;20140;49.356;8.812;2023-06-04T08:11:36;19.10;99.00
33837;DHT22;20140;49.356;8.812;2023-06-04T08:14:02;19.20;99.00
33837;DHT22;20140;49.356;8.812;2023-06-04T08:16:27;19.30;98.90
33837;DHT22;20140;49.356;8.812;2023-06-04T08:18:53;19.40;98.70
33837;DHT22;20140;49.356;8.812;2023-06-04T08:21:25;19.40;98.20
33837;DHT22;20140;49.356;8.812;2023-06-04T08:23:50;19.50;98.70
33837;DHT22;20140;49.356;8.812;2023-06-04T08:26:16;19.60;98.50
33837;DHT22;20140;49.356;8.812;2023-06-04T08:28:43;19.60;98.70
33837;DHT22;20140;49.356;8.812;2023-06-04T08:31:08;19.70;98.40
33837;DHT22;20140;49.356;8.812;2023-06-04T08:33:34;19.90;97.70
33837;DHT22;20140;49.356;8.812;2023-06-04T08:35:59;20.00;97.50
33837;DHT22;20140;49.356;8.812;2023-06-04T08:38:24;20.20;96.90
33837;DHT22;20140;49.356;8.812;2023-06-04T08:40:52;20.20;97.80
33837;DHT22;20140;49.356;8.812;2023-06-04T08:43:18;20.30;98.10
33837;DHT22;20140;49.356;8.812;2023-06-04T08:45:44;20.30;97.40
33837;DHT22;20140;49.356;8.812;2023-06-04T08:48:13;20.30;97.80
33837;DHT22;20140;49.356;8.812;2023-06-04T08:50:39;20.40;97.20
33837;DHT22;20140;49.356;8.812;2023-06-04T08:53:07;20.40;96.70
33837;DHT22;20140;49.356;8.812;2023-06-04T08:55:33;20.60;98.00
33837;DHT22;20140;49.356;8.812;2023-06-04T08:57:59;20.60;95.40
33837;DHT22;20140;49.356;8.812;2023-06-04T09:00:25;20.70;97.00
33837;DHT22;20140;49.356;8.812;2023-06-04T09:02:51;20.80;97.10
33837;DHT22;20140;49.356;8.812;2023-06-04T09:05:19;20.80;96.20
33837;DHT22;20140;49.356;8.812;2023-06-04T09:07:44;21.00;96.70
33837;DHT22;20140;49.356;8.812;2023-06-04T09:10:11;21.10;95.50
33837;DHT22;20140;49.356;8.812;2023-06-04T09:12:39;21.30;95.10
33837;DHT22;20140;49.356;8.812;2023-06-04T09:15:07;21.40;95.20
33837;DHT22;20140;49.356;8.812;2023-06-04T09:17:32;21.50;94.50
33837;DHT22;20140;49.356;8.812;2023-06-04T09:19:58;21.50;93.00
33837;DHT22;20140;49.356;8.812;2023-06-04T09:22:33;21.50;92.50
33837;DHT22;20140;49.356;8.812;2023-06-04T09:24:59;21.60;92.20
33837;DHT22;20140;49.356;8.812;2023-06-04T09:27:24;21.70;91.70
33837;DHT22;20140;49.356;8.812;2023-06-04T09:29:55;21.90;90.70
33837;DHT22;20140;49.356;8.812;2023-06-04T09:32:23;22.00;90.50
33837;DHT22;20140;49.356;8.812;2023-06-04T09:34:49;22.00;85.50
33837;DHT22;20140;49.356;8.812;2023-06-04T09:37:14;22.00;87.20
33837;DHT22;20140;49.356;8.812;2023-06-04T09:39:43;22.00;88.60
33837;DHT22;20140;49.356;8.812;2023-06-04T09:42:08;22.10;85.00
33837;DHT22;20140;49.356;8.812;2023-06-04T09:44:42;22.20;85.70
33837;DHT22;20140;49.356;8.812;2023-06-04T09:47:08;22.40;83.90
33837;DHT22;20140;49.356;8.812;2023-06-04T09:49:40;22.40;81.90
33837;DHT22;20140;49.356;8.812;2023-06-04T09:52:06;22.50;85.50
33837;DHT22;20140;49.356;8.812;2023-06-04T09:54:35;22.50;83.30
33837;DHT22;20140;49.356;8.812;2023-06-04T09:57:01;22.40;84.10
33837;DHT22;20140;49.356;8.812;2023-06-04T09:59:27;22.60;83.20
33837;DHT22;20140;49.356;8.812;2023-06-04T10:01:53;22.70;83.40
33837;DHT22;20140;49.356;8.812;2023-06-04T10:04:19;22.80;81.50
33837;DHT22;20140;49.356;8.812;2023-06-04T10:06:44;22.80;81.00
33837;DHT22;20140;49.356;8.812;2023-06-04T10:09:10;22.80;81.90
33837;DHT22;20140;49.356;8.812;2023-06-04T10:11:41;23.00;78.60
33837;DHT22;20140;49.356;8.812;2023-06-04T10:14:23;23.00;79.70
33837;DHT22;20140;49.356;8.812;2023-06-04T10:16:50;23.20;76.00
33837;DHT22;20140;49.356;8.812;2023-06-04T10:19:16;23.30;82.20
33837;DHT22;20140;49.356;8.812;2023-06-04T10:21:43;23.30;79.90
33837;DHT22;20140;49.356;8.812;2023-06-04T10:24:08;23.40;78.30
33837;DHT22;20140;49.356;8.812;2023-06-04T10:26:34;23.40;75.60
33837;DHT22;20140;49.356;8.812;2023-06-04T10:29:01;23.40;75.10
33837;DHT22;20140;49.356;8.812;2023-06-04T10:31:26;23.40;73.40
33837;DHT22;20140;49.356;8.812;2023-06-04T10:33:55;23.50;76.00
33837;DHT22;20140;49.356;8.812;2023-06-04T10:36:21;23.60;74.30
33837;DHT22;20140;49.356;8.812;2023-06-04T10:38:48;23.70;71.00
33837;DHT22;20140;49.356;8.812;2023-06-04T10:41:14;23.70;74.20
33837;DHT22;20140;49.356;8.812;2023-06-04T10:43:40;23.80;72.80
33837;DHT22;20140;49.356;8.812;2023-06-04T10:46:12;23.90;68.90
33837;DHT22;20140;49.356;8.812;2023-06-04T10:49:39;24.00;72.00
33837;DHT22;20140;49.356;8.812;2023-06-04T10:51:34;24.00;68.60
33837;DHT22;20140;49.356;8.812;2023-06-04T10:54:01;24.00;71.00
33837;DHT22;20140;49.356;8.812;2023-06-04T10:56:30;23.90;69.40
33837;DHT22;20140;49.356;8.812;2023-06-04T10:58:57;24.10;76.50
33837;DHT22;20140;49.356;8.812;2023-06-04T11:01:31;24.00;67.40
33837;DHT22;20140;49.356;8.812;2023-06-04T11:03:57;24.20;70.30
33837;DHT22;20140;49.356;8.812;2023-06-04T11:06:23;24.20;68.40
33837;DHT22;20140;49.356;8.812;2023-06-04T11:09:02;24.40;72.00
33837;DHT22;20140;49.356;8.812;2023-06-04T11:11:28;24.50;70.10
33837;DHT22;20140;49.356;8.812;2023-06-04T11:13:54;24.60;66.00
33837;DHT22;20140;49.356;8.812;2023-06-04T11:16:20;24.70;63.50
33837;DHT22;20140;49.356;8.812;2023-06-04T11:18:55;24.30;64.80
33837;DHT22;20140;49.356;8.812;2023-06-04T11:21:22;24.10;67.10
33837;DHT22;20140;49.356;8.812;2023-06-04T11:23:47;24.30;70.80
33837;DHT22;20140;49.356;8.812;2023-06-04T11:26:13;24.50;65.50
33837;DHT22;20140;49.356;8.812;2023-06-04T11:28:38;24.60;63.60
33837;DHT22;20140;49.356;8.812;2023-06-04T11:31:05;24.80;66.00
33837;DHT22;20140;49.356;8.812;2023-06-04T11:33:46;24.70;65.10
33837;DHT22;20140;49.356;8.812;2023-06-04T11:36:22;24.90;65.70
33837;DHT22;20140;49.356;8.812;2023-06-04T11:38:57;25.00;66.20
33837;DHT22;20140;49.356;8.812;2023-06-04T11:41:23;25.20;68.00
33837;DHT22;20140;49.356;8.812;2023-06-04T11:43:49;25.30;66.90
33837;DHT22;20140;49.356;8.812;2023-06-04T11:46:14;25.30;66.10
33837;DHT22;20140;49.356;8.812;2023-06-04T11:48:40;25.30;64.60
33837;DHT22;20140;49.356;8.812;2023-06-04T11:51:06;25.50;63.20
33837;DHT22;20140;49.356;8.812;2023-06-04T11:53:33;25.40;62.10
33837;DHT22;20140;49.356;8.812;2023-06-04T11:55:59;25.40;64.10
33837;DHT22;20140;49.356;8.812;2023-06-04T11:58:24;25.40;63.50
33837;DHT22;20140;49.356;8.812;2023-06-04T12:00:50;25.60;62.10
33837;DHT22;20140;49.356;8.812;2023-06-04T12:03:15;25.50;59.70
33837;DHT22;20140;49.356;8.812;2023-06-04T12:05:41;25.10;59.00
33837;DHT22;20140;49.356;8.812;2023-06-04T12:08:07;25.20;62.20
33837;DHT22;20140;49.356;8.812;2023-06-04T12:10:40;25.20;57.30
33837;DHT22;20140;49.356;8.812;2023-06-04T12:13:06;24.80;57.30
33837;DHT22;20140;49.356;8.812;2023-06-04T12:15:32;24.90;57.90
33837;DHT22;20140;49.356;8.812;2023-06-04T12:17:57;25.10;60.30
33837;DHT22;20140;49.356;8.812;2023-06-04T12:22:57;25.30;55.90
33837;DHT22;20140;49.356;8.812;2023-06-04T12:25:23;25.40;55.20
33837;DHT22;20140;49.356;8.812;2023-06-04T12:27:50;24.90;54.50
33837;DHT22;20140;49.356;8.812;2023-06-04T12:30:16;24.80;57.10
33837;DHT22;20140;49.356;8.812;2023-06-04T12:32:41;25.00;55.90
33837;DHT22;20140;49.356;8.812;2023-06-04T12:35:10;25.50;57.60
33837;DHT22;20140;49.356;8.812;2023-06-04T12:37:36;25.30;56.10
33837;DHT22;20140;49.356;8.812;2023-06-04T12:40:01;25.70;57.20
33837;DHT22;20140;49.356;8.812;2023-06-04T12:42:27;25.50;54.40
33837;DHT22;20140;49.356;8.812;2023-06-04T12:44:54;25.90;55.70
33837;DHT22;20140;49.356;8.812;2023-06-04T12:47:20;26.40;57.70
33837;DHT22;20140;49.356;8.812;2023-06-04T12:49:46;26.70;55.50
33837;DHT22;20140;49.356;8.812;2023-06-04T12:52:11;26.90;54.50
33837;DHT22;20140;49.356;8.812;2023-06-04T12:54:39;27.30;55.30
33837;DHT22;20140;49.356;8.812;2023-06-04T12:57:05;26.90;54.40
33837;DHT22;20140;49.356;8.812;2023-06-04T12:59:30;27.30;54.60
33837;DHT22;20140;49.356;8.812;2023-06-04T13:01:56;27.70;52.30
33837;DHT22;20140;49.356;8.812;2023-06-04T13:04:22;27.70;52.70
33837;DHT22;20140;49.356;8.812;2023-06-04T13:06:49;28.30;52.00
33837;DHT22;20140;49.356;8.812;2023-06-04T13:09:14;28.10;50.90
33837;DHT22;20140;49.356;8.812;2023-06-04T13:11:41;28.20;51.20
33837;DHT22;20140;49.356;8.812;2023-06-04T13:14:06;28.90;53.60
33837;DHT22;20140;49.356;8.812;2023-06-04T13:16:32;29.40;53.20
33837;DHT22;20140;49.356;8.812;2023-06-04T13:18:58;29.30;49.00
33837;DHT22;20140;49.356;8.812;2023-06-04T13:21:23;29.40;51.70
33837;DHT22;20140;49.356;8.812;2023-06-04T13:23:49;29.90;49.50
33837;DHT22;20140;49.356;8.812;2023-06-04T13:26:15;29.90;46.90
33837;DHT22;20140;49.356;8.812;2023-06-04T13:28:41;30.30;44.40
33837;DHT22;20140;49.356;8.812;2023-06-04T13:31:06;30.30;46.00
33837;DHT22;20140;49.356;8.812;2023-06-04T13:33:32;30.30;41.50
33837;DHT22;20140;49.356;8.812;2023-06-04T13:35:59;28.90;43.60
33837;DHT22;20140;49.356;8.812;2023-06-04T13:38:25;29.50;45.90
33837;DHT22;20140;49.356;8.812;2023-06-04T13:40:50;30.40;46.80
33837;DHT22;20140;49.356;8.812;2023-06-04T13:43:16;31.50;44.90
33837;DHT22;20140;49.356;8.812;2023-06-04T13:45:42;30.80;43.10
33837;DHT22;20140;49.356;8.812;2023-06-04T13:48:09;31.80;42.20
33837;DHT22;20140;49.356;8.812;2023-06-04T13:50:35;31.50;42.20
33837;DHT22;20140;49.356;8.812;2023-06-04T13:53:00;32.20;43.40
33837;DHT22;20140;49.356;8.812;2023-06-04T13:55:26;32.30;39.20
33837;DHT22;20140;49.356;8.812;2023-06-04T13:57:51;31.40;41.00
33837;DHT22;20140;49.356;8.812;2023-06-04T14:00:16;32.70;41.00
33837;DHT22;20140;49.356;8.812;2023-06-04T14:02:42;32.60;39.50
33837;DHT22;20140;49.356;8.812;2023-06-04T14:05:07;32.70;40.40
33837;DHT22;20140;49.356;8.812;2023-06-04T14:07:33;32.70;39.50
33837;DHT22;20140;49.356;8.812;2023-06-04T14:09:59;31.90;40.00
33837;DHT22;20140;49.356;8.812;2023-06-04T14:12:24;33.60;41.20
33837;DHT22;20140;49.356;8.812;2023-06-04T14:14:50;31.70;37.70
33837;DHT22;20140;49.356;8.812;2023-06-04T14:17:16;33.10;41.80
33837;DHT22;20140;49.356;8.812;2023-06-04T14:19:41;31.40;37.70
33837;DHT22;20140;49.356;8.812;2023-06-04T14:22:07;31.50;38.00
33837;DHT22;20140;49.356;8.812;2023-06-04T14:24:32;30.70;38.00
33837;DHT22;20140;49.356;8.812;2023-06-04T14:26:58;31.20;41.50
33837;DHT22;20140;49.356;8.812;2023-06-04T14:29:23;32.20;40.60
33837;DHT22;20140;49.356;8.812;2023-06-04T14:31:49;32.20;37.80
33837;DHT22;20140;49.356;8.812;2023-06-04T14:34:14;32.30;37.50
33837;DHT22;20140;49.356;8.812;2023-06-04T14:36:40;31.50;36.00
33837;DHT22;20140;49.356;8.812;2023-06-04T14:39:05;32.10;39.00
33837;DHT22;20140;49.356;8.812;2023-06-04T14:41:31;31.60;40.90
33837;DHT22;20140;49.356;8.812;2023-06-04T14:43:56;32.10;41.50
33837;DHT22;20140;49.356;8.812;2023-06-04T14:46:22;32.50;39.50
33837;DHT22;20140;49.356;8.812;2023-06-04T14:48:48;31.40;39.70
33837;DHT22;20140;49.356;8.812;2023-06-04T14:51:13;32.40;40.20
33837;DHT22;20140;49.356;8.812;2023-06-04T14:53:38;33.30;39.70
33837;DHT22;20140;49.356;8.812;2023-06-04T14:56:04;32.10;37.50
33837;DHT22;20140;49.356;8.812;2023-06-04T14:58:30;31.80;39.00
33837;DHT22;20140;49.356;8.812;2023-06-04T15:00:55;32.50;40.90
33837;DHT22;20140;49.356;8.812;2023-06-04T15:03:24;32.90;38.80
33837;DHT22;20140;49.356;8.812;2023-06-04T15:05:49;32.30;39.80
33837;DHT22;20140;49.356;8.812;2023-06-04T15:08:15;30.70;38.10
33837;DHT22;20140;49.356;8.812;2023-06-04T15:10:40;32.00;41.80
33837;DHT22;20140;49.356;8.812;2023-06-04T15:13:06;32.10;39.40
33837;DHT22;20140;49.356;8.812;2023-06-04T15:15:31;32.80;39.70
33837;DHT22;20140;49.356;8.812;2023-06-04T15:17:56;33.50;40.10
33837;DHT22;20140;49.356;8.812;2023-06-04T15:20:22;33.00;38.30
33837;DHT22;20140;49.356;8.812;2023-06-04T15:22:50;33.20;37.90
33837;DHT22;20140;49.356;8.812;2023-06-04T15:25:16;33.80;41.00
33837;DHT22;20140;49.356;8.812;2023-06-04T15:27:41;32.80;38.90
33837;DHT22;20140;49.356;8.812;2023-06-04T15:30:07;32.60;39.60
33837;DHT22;20140;49.356;8.812;2023-06-04T15:32:32;32.40;38.40
33837;DHT22;20140;49.356;8.812;2023-06-04T15:34:59;32.80;40.20
33837;DHT22;20140;49.356;8.812;2023-06-04T15:37:25;33.30;40.30